createdAt,value
2018-07-20T00:00:29.398Z,982.66
2018-07-20T00:01:39.192Z,982.64
2018-07-20T00:02:49.253Z,982.66
2018-07-20T00:03:59.317Z,982.66
2018-07-20T00:05:09.454Z,982.61
2018-07-20T00:06:19.574Z,982.66
2018-07-20T00:07:29.658Z,982.65
2018-07-20T00:08:39.729Z,982.62
2018-07-20T00:09:49.268Z,982.65
2018-07-20T00:10:59.129Z,982.64
2018-07-20T00:12:09.213Z,982.67
2018-07-20T00:13:19.008Z,982.68
2018-07-20T00:14:29.087Z,982.69
2018-07-20T00:15:39.158Z,982.68
2018-07-20T00:16:49.080Z,982.71
2018-07-20T00:17:59.022Z,982.67
2018-07-20T00:19:08.553Z,982.68
2018-07-20T00:20:18.354Z,982.73
2018-07-20T00:21:28.424Z,982.73
2018-07-20T00:22:38.544Z,982.74
2018-07-20T00:23:48.349Z,982.74
2018-07-20T00:24:58.425Z,982.73
2018-07-20T00:26:08.230Z,982.74
2018-07-20T00:27:18.033Z,982.74
2018-07-20T00:28:27.608Z,982.76
2018-07-20T00:29:37.685Z,982.74
2018-07-20T00:30:47.762Z,982.74
2018-07-20T00:31:57.578Z,982.73
2018-07-20T00:33:07.094Z,982.72
2018-07-20T00:34:16.928Z,982.72
2018-07-20T00:35:26.996Z,982.74
2018-07-20T00:36:36.771Z,982.7
2018-07-20T00:37:46.844Z,982.7
2018-07-20T00:38:56.647Z,982.75
2018-07-20T00:40:06.507Z,982.74
2018-07-20T00:41:16.596Z,982.73
2018-07-20T00:42:26.395Z,982.76
2018-07-20T00:43:36.485Z,982.76
2018-07-20T00:44:45.755Z,982.75
2018-07-20T00:45:55.905Z,982.76
2018-07-20T00:47:05.438Z,982.74
2018-07-20T00:48:14.709Z,982.74
2018-07-20T00:49:24.525Z,982.74
2018-07-20T00:50:34.599Z,982.69
2018-07-20T00:51:44.440Z,982.68
2018-07-20T00:52:54.523Z,982.68
2018-07-20T00:54:04.314Z,982.7
2018-07-20T00:55:14.371Z,982.71
2018-07-20T00:56:24.459Z,982.71
2018-07-20T00:57:34.583Z,982.66
2018-07-20T00:58:44.152Z,982.68
2018-07-20T00:59:54.221Z,982.7
2018-07-20T01:01:03.751Z,982.68
2018-07-20T01:02:13.822Z,982.66
2018-07-20T01:03:23.678Z,982.65
2018-07-20T01:04:33.493Z,982.68
2018-07-20T01:05:43.591Z,982.66
2018-07-20T01:06:53.396Z,982.64
2018-07-20T01:08:03.466Z,982.68
2018-07-20T01:09:13.317Z,982.63
2018-07-20T01:10:23.397Z,982.62
2018-07-20T01:11:33.482Z,982.62
2018-07-20T01:12:43.565Z,982.63
2018-07-20T01:13:53.078Z,982.58
2018-07-20T01:15:03.195Z,982.6
2018-07-20T01:16:13.270Z,982.63
2018-07-20T01:17:23.096Z,982.58
2018-07-20T01:18:32.897Z,982.55
2018-07-20T01:19:42.705Z,982.55
2018-07-20T01:20:52.567Z,982.57
2018-07-20T01:22:02.361Z,982.56
2018-07-20T01:23:12.172Z,982.56
2018-07-20T01:24:21.974Z,982.58
2018-07-20T01:25:31.231Z,982.57
2018-07-20T01:26:41.093Z,982.53
2018-07-20T01:27:51.171Z,982.55
2018-07-20T01:29:01.232Z,982.54
2018-07-20T01:30:11.012Z,982.51
2018-07-20T01:31:21.096Z,982.5
2018-07-20T01:32:30.953Z,982.51
2018-07-20T01:33:40.751Z,982.5
2018-07-20T01:34:50.554Z,982.45
2018-07-20T01:36:00.625Z,982.5
2018-07-20T01:37:10.416Z,982.49
2018-07-20T01:38:20.537Z,982.52
2018-07-20T01:39:30.057Z,982.49
2018-07-20T01:40:40.128Z,982.48
2018-07-20T01:41:50.206Z,982.54
2018-07-20T01:43:00.266Z,982.52
2018-07-20T01:44:10.391Z,982.57
2018-07-20T01:45:20.446Z,982.52
2018-07-20T01:46:30.257Z,982.52
2018-07-20T01:47:40.314Z,982.54
2018-07-20T01:48:50.380Z,982.53
2018-07-20T01:50:00.230Z,982.58
2018-07-20T01:51:09.744Z,982.53
2018-07-20T01:52:19.288Z,982.54
2018-07-20T01:53:28.830Z,982.55
2018-07-20T01:54:38.631Z,982.54
2018-07-20T01:55:48.485Z,982.56
2018-07-20T01:56:58.283Z,982.54
2018-07-20T01:58:08.332Z,982.52
2018-07-20T01:59:18.139Z,982.56
2018-07-20T02:00:28.278Z,982.58
2018-07-20T02:01:38.405Z,982.5
2018-07-20T02:02:48.460Z,982.54
2018-07-20T02:03:58.251Z,982.52
2018-07-20T02:05:08.318Z,982.49
2018-07-20T02:06:18.385Z,982.5
2018-07-20T02:07:27.964Z,982.5
2018-07-20T02:08:37.778Z,982.49
2018-07-20T02:09:47.587Z,982.53
2018-07-20T02:10:57.646Z,982.5
2018-07-20T02:12:07.176Z,982.5
2018-07-20T02:13:17.324Z,982.51
2018-07-20T02:14:27.391Z,982.53
2018-07-20T02:15:37.460Z,982.52
2018-07-20T02:16:47.273Z,982.54
2018-07-20T02:17:57.093Z,982.55
2018-07-20T02:19:06.963Z,982.54
2018-07-20T02:20:16.771Z,982.53
2018-07-20T02:21:26.845Z,982.53
2018-07-20T02:22:36.754Z,982.52
2018-07-20T02:23:46.833Z,982.5
2018-07-20T02:24:56.941Z,982.51
2018-07-20T02:26:06.197Z,982.5
2018-07-20T02:27:16.017Z,982.54
2018-07-20T02:28:26.111Z,982.5
2018-07-20T02:29:36.274Z,982.51
2018-07-20T02:30:45.947Z,982.5
2018-07-20T02:31:55.751Z,982.49
2018-07-20T02:33:05.814Z,982.48
2018-07-20T02:34:15.602Z,982.47
2018-07-20T02:35:25.407Z,982.45
2018-07-20T02:36:35.538Z,982.49
2018-07-20T02:37:45.344Z,982.47
2018-07-20T02:38:54.884Z,982.49
2018-07-20T02:40:04.675Z,982.52
2018-07-20T02:41:14.489Z,982.49
2018-07-20T02:42:24.607Z,982.52
2018-07-20T02:43:34.678Z,982.49
2018-07-20T02:44:44.756Z,982.51
2018-07-20T02:45:54.830Z,982.52
2018-07-20T02:47:04.359Z,982.52
2018-07-20T02:48:13.679Z,982.51
2018-07-20T02:49:23.472Z,982.49
2018-07-20T02:50:33.262Z,982.48
2018-07-20T02:51:43.063Z,982.48
2018-07-20T02:52:52.863Z,982.46
2018-07-20T02:54:02.699Z,982.49
2018-07-20T02:55:12.505Z,982.51
2018-07-20T02:56:22.585Z,982.52
2018-07-20T02:57:32.650Z,982.47
2018-07-20T02:58:42.462Z,982.48
2018-07-20T02:59:52.597Z,982.52
2018-07-20T03:03:37.291Z,982.51
2018-07-20T03:04:47.105Z,982.5
2018-07-20T03:05:57.180Z,982.49
2018-07-20T03:07:06.437Z,982.48
2018-07-20T03:08:16.249Z,982.45
2018-07-20T03:09:26.377Z,982.44
2018-07-20T03:10:36.189Z,982.45
2018-07-20T03:11:45.723Z,982.47
2018-07-20T03:12:55.816Z,982.46
2018-07-20T03:14:05.618Z,982.49
2018-07-20T03:15:15.184Z,982.5
2018-07-20T03:16:25.304Z,982.49
2018-07-20T03:17:35.371Z,982.49
2018-07-20T03:18:45.461Z,982.49
2018-07-20T03:19:55.546Z,982.47
2018-07-20T03:21:05.530Z,982.44
2018-07-20T03:22:15.549Z,982.44
2018-07-20T03:23:25.350Z,982.44
2018-07-20T03:24:35.498Z,982.41
2018-07-20T03:25:45.317Z,982.4
2018-07-20T03:26:55.179Z,982.4
2018-07-20T03:28:05.241Z,982.4
2018-07-20T03:29:15.349Z,982.43
2018-07-20T03:30:25.154Z,982.42
2018-07-20T03:31:35.231Z,982.4
2018-07-20T03:32:45.426Z,982.4
2018-07-20T03:33:56.095Z,982.41
2018-07-20T03:35:06.193Z,982.37
2018-07-20T03:36:16.004Z,982.37
2018-07-20T03:37:25.541Z,982.37
2018-07-20T03:38:35.394Z,982.37
2018-07-20T03:39:44.927Z,982.38
2018-07-20T03:40:54.727Z,982.39
2018-07-20T03:42:04.542Z,982.43
2018-07-20T03:43:14.617Z,982.38
2018-07-20T03:44:24.748Z,982.37
2018-07-20T03:45:34.551Z,982.36
2018-07-20T03:46:44.606Z,982.35
2018-07-20T03:47:54.691Z,982.4
2018-07-20T03:49:04.856Z,982.41
2018-07-20T03:50:15.140Z,982.42
2018-07-20T03:51:25.196Z,982.44
2018-07-20T03:52:35.250Z,982.37
2018-07-20T03:53:45.322Z,982.42
2018-07-20T03:54:55.116Z,982.44
2018-07-20T03:56:05.235Z,982.43
2018-07-20T03:57:15.045Z,982.44
2018-07-20T03:58:24.318Z,982.44
2018-07-20T03:59:34.391Z,982.37
2018-07-20T04:00:44.189Z,982.43
2018-07-20T04:01:53.759Z,982.42
2018-07-20T04:03:03.839Z,982.43
2018-07-20T04:04:13.647Z,982.39
2018-07-20T04:05:23.715Z,982.41
2018-07-20T04:06:33.794Z,982.38
2018-07-20T04:07:43.912Z,982.36
2018-07-20T04:08:53.993Z,982.36
2018-07-20T04:10:04.082Z,982.34
2018-07-20T04:11:13.777Z,982.36
2018-07-20T04:12:23.846Z,982.34
2018-07-20T04:13:33.955Z,982.39
2018-07-20T04:14:44.016Z,982.4
2018-07-20T04:15:54.079Z,982.37
2018-07-20T04:17:04.164Z,982.35
2018-07-20T04:18:14.237Z,982.33
2018-07-20T04:19:24.358Z,982.33
2018-07-20T04:20:34.428Z,982.33
2018-07-20T04:21:44.499Z,982.31
2018-07-20T04:22:54.036Z,982.31
2018-07-20T04:24:03.848Z,982.33
2018-07-20T04:25:13.963Z,982.32
2018-07-20T04:26:24.039Z,982.33
2018-07-20T04:27:34.092Z,982.37
2018-07-20T04:28:44.168Z,982.4
2018-07-20T04:29:53.956Z,982.42
2018-07-20T04:31:03.533Z,982.42
2018-07-20T04:32:13.326Z,982.38
2018-07-20T04:33:23.389Z,982.36
2018-07-20T04:34:33.184Z,982.35
2018-07-20T04:35:43.255Z,982.38
2018-07-20T04:36:53.369Z,982.37
2018-07-20T04:38:03.443Z,982.34
2018-07-20T04:39:13.525Z,982.35
2018-07-20T04:40:23.607Z,982.35
2018-07-20T04:41:33.404Z,982.32
2018-07-20T04:42:43.520Z,982.36
2018-07-20T04:43:53.133Z,982.32
2018-07-20T04:45:03.447Z,982.36
2018-07-20T04:46:13.537Z,982.32
2018-07-20T04:47:23.597Z,982.27
2018-07-20T04:48:33.726Z,982.28
2018-07-20T04:49:43.798Z,982.28
2018-07-20T04:50:53.723Z,982.28
2018-07-20T04:52:03.788Z,982.28
2018-07-20T04:53:13.594Z,982.31
2018-07-20T04:54:23.458Z,982.33
2018-07-20T04:55:32.722Z,982.34
2018-07-20T04:56:42.787Z,982.36
2018-07-20T04:57:52.849Z,982.34
2018-07-20T04:59:02.654Z,982.36
2018-07-20T05:00:12.791Z,982.28
2018-07-20T05:01:22.858Z,982.31
2018-07-20T05:02:32.406Z,982.36
2018-07-20T05:03:42.218Z,982.36
2018-07-20T05:04:52.247Z,982.35
2018-07-20T05:06:02.115Z,982.36
2018-07-20T05:07:11.656Z,982.37
2018-07-20T05:08:21.186Z,982.37
2018-07-20T05:09:30.992Z,982.37
2018-07-20T05:10:40.785Z,982.36
2018-07-20T05:11:50.889Z,982.39
2018-07-20T05:13:00.691Z,982.35
2018-07-20T05:14:10.779Z,982.37
2018-07-20T05:15:20.863Z,982.38
2018-07-20T05:16:30.936Z,982.37
2018-07-20T05:17:41.059Z,982.36
2018-07-20T05:18:50.867Z,982.36
2018-07-20T05:20:00.425Z,982.33
2018-07-20T05:21:09.423Z,982.34
2018-07-20T05:22:19.501Z,982.35
2018-07-20T05:23:29.630Z,982.34
2018-07-20T05:24:39.433Z,982.34
2018-07-20T05:25:49.507Z,982.35
2018-07-20T05:26:59.606Z,982.37
2018-07-20T05:28:09.411Z,982.32
2018-07-20T05:29:19.284Z,982.32
2018-07-20T05:30:29.077Z,982.34
2018-07-20T05:31:39.149Z,982.36
2018-07-20T05:32:48.954Z,982.41
2018-07-20T05:33:59.042Z,982.36
2018-07-20T05:35:08.911Z,982.38
2018-07-20T05:36:18.729Z,982.36
2018-07-20T05:37:28.810Z,982.35
2018-07-20T05:38:38.872Z,982.34
2018-07-20T05:39:48.949Z,982.37
2018-07-20T05:40:59.101Z,982.36
2018-07-20T05:42:08.919Z,982.35
2018-07-20T05:43:19.000Z,982.35
2018-07-20T05:44:29.095Z,982.33
2018-07-20T05:45:38.906Z,982.28
2018-07-20T05:46:49.064Z,982.29
2018-07-20T05:47:59.141Z,982.3
2018-07-20T05:49:08.953Z,982.3
2018-07-20T05:50:18.780Z,982.29
2018-07-20T05:51:28.849Z,982.28
2018-07-20T05:52:38.964Z,982.25
2018-07-20T05:53:49.033Z,982.28
2018-07-20T05:54:59.101Z,982.27
2018-07-20T05:56:08.623Z,982.23
2018-07-20T05:57:18.706Z,982.25
2018-07-20T05:58:28.836Z,982.27
2018-07-20T05:59:38.916Z,982.26
2018-07-20T06:00:48.986Z,982.26
2018-07-20T06:01:59.061Z,982.25
2018-07-20T06:03:08.912Z,982.24
2018-07-20T06:04:18.757Z,982.24
2018-07-20T06:05:28.329Z,982.21
2018-07-20T06:06:38.769Z,982.21
2018-07-20T06:07:48.300Z,982.23
2018-07-20T06:08:58.435Z,982.22
2018-07-20T06:10:08.295Z,982.24
2018-07-20T06:11:18.365Z,982.21
2018-07-20T06:12:28.164Z,982.22
2018-07-20T06:13:38.247Z,982.21
2018-07-20T06:14:47.792Z,982.26
2018-07-20T06:15:57.650Z,982.26
2018-07-20T06:17:07.189Z,982.25
2018-07-20T06:18:17.285Z,982.27
2018-07-20T06:19:26.556Z,982.27
2018-07-20T06:20:36.067Z,982.28
2018-07-20T06:21:45.922Z,982.27
2018-07-20T06:22:55.785Z,982.26
2018-07-20T06:24:05.865Z,982.26
2018-07-20T06:25:15.415Z,982.26
2018-07-20T06:26:25.514Z,982.25
2018-07-20T06:27:36.604Z,982.22
2018-07-20T06:28:46.150Z,982.24
2018-07-20T06:29:56.228Z,982.22
2018-07-20T06:31:05.756Z,982.24
2018-07-20T06:32:15.286Z,982.23
2018-07-20T06:33:25.148Z,982.21
2018-07-20T06:34:34.948Z,982.22
2018-07-20T06:35:45.010Z,982.23
2018-07-20T06:36:55.087Z,982.25
2018-07-20T06:38:27.438Z,982.24
2018-07-20T06:39:37.489Z,982.25
2018-07-20T06:40:47.535Z,982.21
2018-07-20T06:41:57.399Z,982.22
2018-07-20T06:43:06.665Z,982.22
2018-07-20T06:44:16.805Z,982.19
2018-07-20T06:45:26.881Z,982.24
2018-07-20T06:46:36.686Z,982.22
2018-07-20T06:47:46.776Z,982.22
2018-07-20T06:48:56.849Z,982.21
2018-07-20T06:50:05.894Z,982.19
2018-07-20T06:51:15.963Z,982.16
2018-07-20T06:52:26.040Z,982.18
2018-07-20T06:53:36.128Z,982.15
2018-07-20T06:54:46.205Z,982.15
2018-07-20T06:55:56.088Z,982.16
2018-07-20T06:57:05.424Z,982.15
2018-07-20T06:58:14.958Z,982.18
2018-07-20T06:59:25.038Z,982.15
2018-07-20T07:00:34.853Z,982.11
2018-07-20T07:01:44.690Z,982.16
2018-07-20T07:02:54.214Z,982.15
2018-07-20T07:04:04.309Z,982.08
2018-07-20T07:05:13.574Z,982.1
2018-07-20T07:06:22.832Z,982.08
2018-07-20T07:07:32.970Z,982.05
2018-07-20T07:08:43.030Z,982.08
2018-07-20T07:09:52.556Z,982.05
2018-07-20T07:11:01.550Z,982.03
2018-07-20T07:12:11.081Z,982.06
2018-07-20T07:13:21.204Z,982.02
2018-07-20T07:14:31.291Z,982.06
2018-07-20T07:15:41.357Z,982.02
2018-07-20T07:16:51.148Z,982.06
2018-07-20T07:18:01.232Z,982.04
2018-07-20T07:19:11.077Z,982.02
2018-07-20T07:20:21.166Z,982
2018-07-20T07:21:31.242Z,982.03
2018-07-20T07:22:41.317Z,982.01
2018-07-20T07:23:51.165Z,982.02
2018-07-20T07:25:01.283Z,982.02
2018-07-20T07:26:11.340Z,981.99
2018-07-20T07:27:20.613Z,981.96
2018-07-20T07:28:30.694Z,982
2018-07-20T07:29:40.784Z,981.94
2018-07-20T07:30:50.637Z,981.95
2018-07-20T07:32:00.827Z,981.97
2018-07-20T07:33:10.924Z,982
2018-07-20T07:34:21.004Z,982
2018-07-20T07:35:31.093Z,981.95
2018-07-20T07:36:41.244Z,982
2018-07-20T07:37:50.778Z,982.01
2018-07-20T07:39:00.569Z,982
2018-07-20T07:40:10.651Z,982.01
2018-07-20T07:41:20.738Z,982.03
2018-07-20T07:42:30.869Z,982.01
2018-07-20T07:43:40.958Z,982
2018-07-20T07:44:50.764Z,981.99
2018-07-20T07:45:59.753Z,982.01
2018-07-20T07:47:09.570Z,981.95
2018-07-20T07:48:19.682Z,981.97
2018-07-20T07:49:29.508Z,981.96
2018-07-20T07:50:39.589Z,981.93
2018-07-20T07:51:49.409Z,981.93
2018-07-20T07:52:59.222Z,981.95
2018-07-20T07:54:09.374Z,981.94
2018-07-20T07:55:19.440Z,981.94
2018-07-20T07:56:29.504Z,981.91
2018-07-20T07:57:39.574Z,981.95
2018-07-20T07:58:49.379Z,981.95
2018-07-20T07:59:59.244Z,981.94
2018-07-20T08:01:09.333Z,981.92
2018-07-20T08:02:19.398Z,981.95
2018-07-20T08:03:29.334Z,981.96
2018-07-20T08:04:39.770Z,981.95
2018-07-20T08:05:50.005Z,981.9
2018-07-20T08:06:59.815Z,981.91
2018-07-20T08:08:09.072Z,981.92
2018-07-20T08:09:18.604Z,981.88
2018-07-20T08:10:28.413Z,981.88
2018-07-20T08:11:37.822Z,981.85
2018-07-20T08:12:47.890Z,981.82
2018-07-20T08:13:57.978Z,981.83
2018-07-20T08:15:07.803Z,981.82
2018-07-20T08:16:17.346Z,981.82
2018-07-20T08:17:27.304Z,981.79
2018-07-20T08:18:37.366Z,981.78
2018-07-20T08:19:47.435Z,981.78
2018-07-20T08:20:57.241Z,981.8
2018-07-20T08:22:07.330Z,981.83
2018-07-20T08:23:17.561Z,981.77
2018-07-20T08:24:27.647Z,981.78
2018-07-20T08:25:37.740Z,981.75
2018-07-20T08:26:47.815Z,981.77
2018-07-20T08:27:57.625Z,981.77
2018-07-20T08:29:07.849Z,981.75
2018-07-20T08:30:17.940Z,981.77
2018-07-20T08:31:28.016Z,981.77
2018-07-20T08:32:37.549Z,981.75
2018-07-20T08:33:47.633Z,981.74
2018-07-20T08:34:57.868Z,981.73
2018-07-20T08:36:07.677Z,981.75
2018-07-20T08:37:17.215Z,981.75
2018-07-20T08:38:27.018Z,981.7
2018-07-20T08:39:37.115Z,981.73
2018-07-20T08:40:46.821Z,981.73
2018-07-20T08:41:56.623Z,981.72
2018-07-20T08:43:06.172Z,981.74
2018-07-20T08:44:15.996Z,981.75
2018-07-20T08:45:25.524Z,981.73
2018-07-20T08:46:35.671Z,981.75
2018-07-20T08:47:46.145Z,981.73
2018-07-20T08:48:56.212Z,981.73
2018-07-20T08:50:06.278Z,981.69
2018-07-20T08:51:16.364Z,981.66
2018-07-20T08:52:26.214Z,981.67
2018-07-20T08:53:36.020Z,981.69
2018-07-20T08:54:45.564Z,981.67
2018-07-20T08:55:55.638Z,981.68
2018-07-20T08:57:05.190Z,981.69
2018-07-20T08:58:15.061Z,981.69
2018-07-20T08:59:24.843Z,981.71
2018-07-20T09:00:34.657Z,981.7
2018-07-20T09:01:44.736Z,981.72
2018-07-20T09:02:54.553Z,981.66
2018-07-20T09:04:04.669Z,981.7
2018-07-20T09:05:14.463Z,981.71
2018-07-20T09:06:24.548Z,981.71
2018-07-20T09:07:34.616Z,981.68
2018-07-20T09:08:44.424Z,981.68
2018-07-20T09:09:54.312Z,981.65
2018-07-20T09:11:04.375Z,981.66
2018-07-20T09:12:14.172Z,981.63
2018-07-20T09:13:24.273Z,981.64
2018-07-20T09:14:34.076Z,981.63
2018-07-20T09:15:44.190Z,981.57
2018-07-20T09:16:54.012Z,981.58
2018-07-20T09:18:03.546Z,981.61
2018-07-20T09:19:13.355Z,981.57
2018-07-20T09:20:23.431Z,981.53
2018-07-20T09:21:33.630Z,981.55
2018-07-20T09:22:43.716Z,981.57
2018-07-20T09:23:53.802Z,981.56
2018-07-20T09:25:03.894Z,981.54
2018-07-20T09:26:13.979Z,981.55
2018-07-20T09:27:24.111Z,981.52
2018-07-20T09:28:33.920Z,981.5
2018-07-20T09:29:43.724Z,981.45
2018-07-20T09:30:53.824Z,981.43
2018-07-20T09:32:03.909Z,981.48
2018-07-20T09:33:14.029Z,981.47
2018-07-20T09:34:23.822Z,981.46
2018-07-20T09:35:33.910Z,981.44
2018-07-20T09:36:43.725Z,981.45
2018-07-20T09:37:52.998Z,981.4
2018-07-20T09:39:03.146Z,981.43
2018-07-20T09:40:13.217Z,981.4
2018-07-20T09:41:23.299Z,981.37
2018-07-20T09:42:33.101Z,981.36
2018-07-20T09:43:42.918Z,981.34
2018-07-20T09:44:52.762Z,981.34
2018-07-20T09:46:02.824Z,981.28
2018-07-20T09:47:12.627Z,981.3
2018-07-20T09:48:22.157Z,981.28
2018-07-20T09:49:31.980Z,981.3
2018-07-20T09:50:41.848Z,981.33
2018-07-20T09:51:51.648Z,981.28
2018-07-20T09:53:01.730Z,981.23
2018-07-20T09:54:11.800Z,981.26
2018-07-20T09:55:21.329Z,981.23
2018-07-20T09:56:31.461Z,981.24
2018-07-20T09:57:41.547Z,981.21
2018-07-20T09:58:51.637Z,981.21
2018-07-20T10:00:01.462Z,981.24
2018-07-20T10:01:11.544Z,981.22
2018-07-20T10:02:21.129Z,981.17
2018-07-20T10:03:31.205Z,981.13
2018-07-20T10:04:40.459Z,981.13
2018-07-20T10:05:50.281Z,981.1
2018-07-20T10:07:00.340Z,981.06
2018-07-20T10:08:09.940Z,981.02
2018-07-20T10:09:20.015Z,981.01
2018-07-20T10:10:29.571Z,981.04
2018-07-20T10:11:39.669Z,981.01
2018-07-20T10:12:49.464Z,980.99
2018-07-20T10:13:59.590Z,980.99
2018-07-20T10:15:09.673Z,980.94
2018-07-20T10:16:19.223Z,980.89
2018-07-20T10:17:29.291Z,980.91
2018-07-20T10:18:39.113Z,980.93
2018-07-20T10:19:49.261Z,980.91
2018-07-20T10:20:59.070Z,980.88
2018-07-20T10:22:08.622Z,980.86
2018-07-20T10:23:17.620Z,980.84
2018-07-20T10:24:27.692Z,980.92
2018-07-20T10:25:37.582Z,980.86
2018-07-20T10:26:48.041Z,980.84
2018-07-20T10:27:57.590Z,980.87
2018-07-20T10:29:07.426Z,980.82
2018-07-20T10:30:17.509Z,980.84
2018-07-20T10:31:27.366Z,980.82
2018-07-20T10:32:37.454Z,980.84
2018-07-20T10:33:47.543Z,980.84
2018-07-20T10:34:57.628Z,980.79
2018-07-20T10:36:07.168Z,980.75
2018-07-20T10:37:16.766Z,980.75
2018-07-20T10:38:26.844Z,980.77
2018-07-20T10:39:36.920Z,980.75
2018-07-20T10:40:46.752Z,980.77
2018-07-20T10:41:56.829Z,980.74
2018-07-20T10:43:06.978Z,980.79
2018-07-20T10:44:17.365Z,980.76
2018-07-20T10:45:27.185Z,980.74
2018-07-20T10:46:36.980Z,980.74
2018-07-20T10:47:47.049Z,980.76
2018-07-20T10:48:57.188Z,980.74
2018-07-20T10:50:06.724Z,980.71
2018-07-20T10:51:16.282Z,980.69
2018-07-20T10:52:25.838Z,980.7
2018-07-20T10:53:35.357Z,980.65
2018-07-20T10:54:45.211Z,980.66
2018-07-20T10:55:55.292Z,980.67
2018-07-20T10:57:05.100Z,980.63
2018-07-20T10:58:15.189Z,980.67
2018-07-20T10:59:25.010Z,980.65
2018-07-20T11:00:34.869Z,980.66
2018-07-20T11:01:45.003Z,980.63
2018-07-20T11:02:54.885Z,980.64
2018-07-20T11:04:04.430Z,980.62
2018-07-20T11:05:14.531Z,980.58
2018-07-20T11:06:24.658Z,980.54
2018-07-20T11:07:34.734Z,980.5
2018-07-20T11:08:44.282Z,980.53
2018-07-20T11:09:53.812Z,980.53
2018-07-20T11:11:03.893Z,980.54
2018-07-20T11:12:14.027Z,980.57
2018-07-20T11:13:24.123Z,980.55
2018-07-20T11:14:33.658Z,980.53
2018-07-20T11:15:43.725Z,980.56
2018-07-20T11:16:53.285Z,980.57
2018-07-20T11:18:03.399Z,980.54
2018-07-20T11:19:13.448Z,980.56
2018-07-20T11:20:23.603Z,980.57
2018-07-20T11:21:33.272Z,980.53
2018-07-20T11:22:42.537Z,980.53
2018-07-20T11:23:52.675Z,980.54
2018-07-20T11:25:02.498Z,980.54
2018-07-20T11:26:12.307Z,980.51
2018-07-20T11:27:22.393Z,980.51
2018-07-20T11:28:32.197Z,980.49
2018-07-20T11:29:41.789Z,980.5
2018-07-20T11:30:51.587Z,980.56
2018-07-20T11:32:01.391Z,980.55
2018-07-20T11:33:11.483Z,980.52
2018-07-20T11:34:21.286Z,980.5
2018-07-20T11:35:30.594Z,980.49
2018-07-20T11:36:40.671Z,980.46
2018-07-20T11:37:50.737Z,980.42
2018-07-20T11:39:00.546Z,980.41
2018-07-20T11:40:10.360Z,980.5
2018-07-20T11:41:20.232Z,980.47
2018-07-20T11:42:29.514Z,980.48
2018-07-20T11:43:39.307Z,980.5
2018-07-20T11:44:49.125Z,980.52
2018-07-20T11:45:59.225Z,980.49
2018-07-20T11:47:09.081Z,980.47
2018-07-20T11:48:19.180Z,980.47
2018-07-20T11:49:28.979Z,980.45
2018-07-20T11:50:39.059Z,980.45
2018-07-20T11:51:49.117Z,980.44
2018-07-20T11:52:58.978Z,980.45
2018-07-20T11:54:08.228Z,980.37
2018-07-20T11:55:18.295Z,980.61
2018-07-20T11:56:28.111Z,980.49
2018-07-20T11:57:38.204Z,980.44
2018-07-20T11:58:48.351Z,980.21
2018-07-20T11:59:57.887Z,980.42
2018-07-20T12:01:07.547Z,980.4
2018-07-20T12:02:17.373Z,980.16
2018-07-20T12:03:26.900Z,980.45
2018-07-20T12:04:37.015Z,980.37
2018-07-20T12:05:47.127Z,980.31
2018-07-20T12:06:56.973Z,980.27
2018-07-20T12:08:06.683Z,980.28
2018-07-20T12:09:16.514Z,980.21
2018-07-20T12:10:26.656Z,980.23
2018-07-20T12:11:36.465Z,980.2
2018-07-20T12:12:46.541Z,980.21
2018-07-20T12:13:56.617Z,980.14
2018-07-20T12:15:06.463Z,980.19
2018-07-20T12:16:16.079Z,980.17
2018-07-20T12:17:25.888Z,980.12
2018-07-20T12:18:35.695Z,980.04
2018-07-20T12:19:45.504Z,980.06
2018-07-20T12:20:55.316Z,979.9
2018-07-20T12:22:04.905Z,979.94
2018-07-20T12:23:14.448Z,979.98
2018-07-20T12:24:24.275Z,980.02
2018-07-20T12:25:34.076Z,980.01
2018-07-20T12:26:43.893Z,980.28
2018-07-20T12:27:53.483Z,980.18
2018-07-20T12:29:03.563Z,980.18
2018-07-20T12:30:13.408Z,980.16
2018-07-20T12:31:23.222Z,980.14
2018-07-20T12:32:33.042Z,980.12
2018-07-20T12:33:42.903Z,979.87
2018-07-20T12:34:52.451Z,979.83
2018-07-20T12:36:02.003Z,979.83
2018-07-20T12:37:12.090Z,979.94
2018-07-20T12:38:22.180Z,980.09
2018-07-20T12:39:32.030Z,979.99
2018-07-20T12:40:42.120Z,979.85
2018-07-20T12:41:51.935Z,980.04
2018-07-20T12:43:02.008Z,980.02
2018-07-20T12:44:11.554Z,980.01
2018-07-20T12:45:21.429Z,980
2018-07-20T12:46:31.523Z,979.99
2018-07-20T12:47:41.434Z,979.79
2018-07-20T12:48:50.975Z,979.79
2018-07-20T12:50:00.785Z,979.83
2018-07-20T12:51:10.572Z,979.81
2018-07-20T12:52:20.125Z,979.94
2018-07-20T12:53:30.221Z,980.02
2018-07-20T12:54:39.622Z,979.93
2018-07-20T12:55:49.446Z,979.61
2018-07-20T12:56:59.584Z,979.72
2018-07-20T12:58:09.402Z,980.06
2018-07-20T12:59:18.959Z,980.07
2018-07-20T13:00:28.522Z,979.71
2018-07-20T13:01:38.610Z,980.01
2018-07-20T13:02:48.481Z,979.94
2018-07-20T13:03:58.018Z,979.88
2018-07-20T13:05:08.100Z,979.66
2018-07-20T13:06:18.191Z,979.83
2018-07-20T13:07:28.264Z,979.88
2018-07-20T13:08:38.394Z,979.83
2018-07-20T13:09:48.489Z,979.56
2018-07-20T13:10:58.593Z,979.54
2018-07-20T13:12:08.440Z,979.83
2018-07-20T13:13:18.694Z,979.43
2018-07-20T13:14:28.311Z,979.52
2018-07-20T13:15:38.150Z,979.52
2018-07-20T13:16:48.232Z,979.52
2018-07-20T13:17:58.089Z,979.53
2018-07-20T13:19:08.928Z,979.49
2018-07-20T13:20:18.272Z,979.57
2018-07-20T13:21:28.373Z,979.6
2018-07-20T13:22:38.463Z,979.67
2018-07-20T13:23:48.075Z,979.75
2018-07-20T13:24:57.780Z,979.5
2018-07-20T13:26:07.849Z,979.53
2018-07-20T13:27:17.935Z,979.55
2018-07-20T13:28:28.008Z,979.54
2018-07-20T13:29:38.075Z,979.5
2018-07-20T13:30:48.145Z,979.99
2018-07-20T13:31:58.262Z,979.51
2018-07-20T13:33:08.107Z,979.59
2018-07-20T13:34:18.193Z,979.49
2018-07-20T13:35:27.997Z,979.49
2018-07-20T13:36:38.081Z,979.48
2018-07-20T13:37:47.994Z,979.46
2018-07-20T13:38:58.066Z,979.42
2018-07-20T13:40:07.869Z,979.44
2018-07-20T13:41:17.671Z,979.48
2018-07-20T13:42:27.868Z,979.97
2018-07-20T13:43:37.803Z,979.38
2018-07-20T13:44:47.599Z,979.4
2018-07-20T13:45:57.414Z,979.35
2018-07-20T13:47:06.965Z,979.35
2018-07-20T13:48:16.247Z,979.34
2018-07-20T13:49:26.372Z,979.35
2018-07-20T13:50:36.183Z,979.37
2018-07-20T13:51:45.702Z,979.3
2018-07-20T13:52:55.039Z,979.28
2018-07-20T13:54:05.120Z,979.26
2018-07-20T13:55:15.258Z,979.28
2018-07-20T13:56:25.343Z,979.59
2018-07-20T13:57:34.879Z,979.32
2018-07-20T13:58:44.698Z,979.77
2018-07-20T13:59:54.781Z,979.74
2018-07-20T14:01:04.913Z,979.78
2018-07-20T14:02:14.728Z,979.23
2018-07-20T14:03:24.272Z,979.25
2018-07-20T14:04:33.534Z,979.19
2018-07-20T14:05:43.364Z,979.22
2018-07-20T14:06:53.236Z,979.23
2018-07-20T14:08:03.322Z,979.21
2018-07-20T14:09:13.125Z,979.17
2018-07-20T14:10:22.941Z,979.2
2018-07-20T14:11:33.027Z,979.19
2018-07-20T14:12:42.883Z,979.19
2018-07-20T14:13:52.682Z,979.19
2018-07-20T14:15:02.487Z,979.29
2018-07-20T14:16:12.012Z,979.63
2018-07-20T14:17:21.532Z,979.66
2018-07-20T14:18:30.882Z,979.74
2018-07-20T14:19:40.998Z,979.7
2018-07-20T14:20:51.091Z,979.7
2018-07-20T14:22:00.882Z,979.65
2018-07-20T14:23:10.958Z,979.91
2018-07-20T14:24:21.093Z,979.87
2018-07-20T14:25:31.174Z,979.91
2018-07-20T14:26:41.268Z,980.07
2018-07-20T14:27:51.122Z,978.86
2018-07-20T14:29:01.212Z,980.27
2018-07-20T14:30:11.077Z,980.41
2018-07-20T14:31:20.688Z,980.28
2018-07-20T14:32:31.226Z,980.26
2018-07-20T14:33:40.804Z,979
2018-07-20T14:34:50.615Z,979.01
2018-07-20T14:36:00.482Z,978.91
2018-07-20T14:37:10.300Z,978.91
2018-07-20T14:38:20.374Z,979.01